Attica, Kansas
Current Conditions -  °F | °C
As of 1:50 AM on Monday 24 Nov 2014 (Local Time) from KAVK Reporting Station
Clear Clear  
Wind Chill: -4°   Ceiling: Unl
Heat Index:   Visibility: 10mi
Dew Point: -5°   Wind: 9mph
Humidity: 69%   Direction: 260°W
Pressure: 29.83"   Gusts: NA
Location:  37.24°N, 98.23°W
Report Text: KAVK 240750Z AUTO 26008KT 10SM CLR 00/M05 A2983 RMK AO2
Loading
Personal Weather Stations






























Interactive Weather Map New forecast layout! Learn more

10-Day Weather Forecast

Advertisements
Track Severe Weather on mobile